Time;durP1;ratioP1;P1;durP2;ratioP2;P2;SDS_P1;SDS_P2;PMS_P1;PMS_P2;Temp;Humidity;BMP_temperature;BMP_pressure;BME280_temperature;BME280_humidity;BME280_pressure;Samples;Min_cycle;Max_cycle;Signal;HPM_P1;HPM_P2
2021/09/21 00:00:20;;;;;;;26.98;25.70;;;;;;;11.50;100.00;98579.75;5031725;28;20092;-82
2021/09/21 00:02:45;;;;;;;27.13;25.85;;;;;;;11.49;100.00;98570.75;5013635;28;20029;-79
2021/09/21 00:05:11;;;;;;;28.02;26.65;;;;;;;11.65;100.00;98577.72;5030752;28;20032;-82
2021/09/21 00:07:36;;;;;;;27.10;25.75;;;;;;;11.67;100.00;98572.78;5032578;28;20052;-80
2021/09/21 00:10:03;;;;;;;29.17;27.85;;;;;;;11.56;100.00;98568.47;5019254;28;20033;-82
2021/09/21 00:12:28;;;;;;;30.50;29.13;;;;;;;11.55;100.00;98572.34;5019529;28;20032;-82
2021/09/21 00:14:54;;;;;;;27.70;26.50;;;;;;;11.66;100.00;98565.66;5019262;28;20029;-81
2021/09/21 00:17:19;;;;;;;37.50;35.80;;;;;;;11.56;100.00;98571.22;5037209;28;20045;-82
2021/09/21 00:19:44;;;;;;;35.58;34.08;;;;;;;11.67;100.00;98570.03;5037493;28;20108;-79
2021/09/21 00:22:10;;;;;;;38.15;35.95;;;;;;;11.55;100.00;98566.88;5036319;28;20067;-80
2021/09/21 00:24:35;;;;;;;39.95;38.00;;;;;;;11.33;100.00;98561.00;5034134;28;20499;-82
2021/09/21 00:27:01;;;;;;;39.85;38.15;;;;;;;11.23;100.00;98572.84;5051134;28;20056;-80
2021/09/21 00:29:26;;;;;;;40.53;38.72;;;;;;;11.12;100.00;98570.47;5034217;28;20120;-80
2021/09/21 00:32:01;;;;;;;38.80;36.90;;;;;;;11.06;100.00;98564.19;5049868;28;20029;-81
2021/09/21 00:34:37;;;;;;;39.05;37.45;;;;;;;11.13;100.00;98569.34;5020116;28;20064;-80
2021/09/21 00:37:05;;;;;;;53.10;50.90;;;;;;;11.16;100.00;98564.13;5037796;28;20032;-80
2021/09/21 00:39:31;;;;;;;37.90;36.00;;;;;;;11.19;100.00;98573.69;5037801;28;20155;-83
2021/09/21 00:41:57;;;;;;;43.53;41.50;;;;;;;11.21;100.00;98571.50;5022853;28;20422;-83
2021/09/21 00:44:22;;;;;;;47.70;45.25;;;;;;;11.21;100.00;98571.50;5023451;28;20022;-82
2021/09/21 00:46:48;;;;;;;44.45;42.45;;;;;;;11.17;100.00;98575.91;5019363;28;20040;-79
2021/09/21 00:49:14;;;;;;;52.65;49.97;;;;;;;11.26;100.00;98580.50;5019776;28;20562;-78
2021/09/21 00:51:40;;;;;;;53.97;51.58;;;;;;;11.23;100.00;98581.06;5036909;28;20033;-80
2021/09/21 00:54:05;;;;;;;55.45;52.90;;;;;;;11.20;100.00;98575.34;5019413;28;20103;-82
2021/09/21 00:56:31;;;;;;;63.75;60.75;;;;;;;11.13;100.00;98583.03;5037044;28;20022;-80
2021/09/21 00:58:57;;;;;;;55.95;53.15;;;;;;;10.93;100.00;98574.97;5037013;28;20035;-77
2021/09/21 01:01:23;;;;;;;54.53;52.22;;;;;;;10.79;100.00;98573.91;5036782;28;20060;-79
2021/09/21 01:03:49;;;;;;;55.85;53.10;;;;;;;10.72;100.00;98575.06;5039656;28;20053;-78
2021/09/21 01:06:15;;;;;;;53.25;50.50;;;;;;;10.66;100.00;98565.22;5045083;28;20371;-79
2021/09/21 01:08:41;;;;;;;50.17;47.97;;;;;;;10.60;100.00;98571.81;5038139;28;20025;-78
2021/09/21 01:11:14;;;;;;;34.08;32.30;;;;;;;11.05;100.00;98568.03;5018802;28;20547;-78
2021/09/21 01:13:40;;;;;;;30.80;29.20;;;;;;;11.29;100.00;98568.16;5036299;28;20037;-77
2021/09/21 01:16:05;;;;;;;30.95;29.55;;;;;;;11.21;100.00;98566.81;5036936;28;20021;-77
2021/09/21 01:18:32;;;;;;;29.05;27.75;;;;;;;11.00;100.00;98565.31;5018821;28;20029;-77
2021/09/21 01:21:06;;;;;;;32.40;30.90;;;;;;;10.75;100.00;98562.72;5033154;28;20025;-80
2021/09/21 01:23:42;;;;;;;30.58;29.20;;;;;;;10.90;100.00;98567.31;5033224;28;20052;-78
2021/09/21 01:26:08;;;;;;;29.88;28.38;;;;;;;10.98;100.00;98563.97;5033336;28;20037;-78
2021/09/21 01:28:33;;;;;;;27.35;25.98;;;;;;;11.04;100.00;98566.41;5015778;28;20033;-79
2021/09/21 01:30:59;;;;;;;28.73;27.30;;;;;;;11.09;100.00;98565.53;5015961;28;20030;-78
2021/09/21 01:33:24;;;;;;;27.85;26.58;;;;;;;11.11;100.00;98568.81;5033015;28;20033;-79
2021/09/21 01:35:50;;;;;;;33.67;31.30;;;;;;;11.08;100.00;98572.13;5015461;28;20021;-79
2021/09/21 01:38:15;;;;;;;30.00;28.73;;;;;;;10.99;100.00;98568.34;5033390;28;20033;-77
2021/09/21 01:40:41;;;;;;;29.52;28.08;;;;;;;11.08;100.00;98559.25;5033284;28;20115;-78
2021/09/21 01:43:06;;;;;;;30.65;29.23;;;;;;;11.10;100.00;98553.47;5032968;28;20029;-80
2021/09/21 01:45:32;;;;;;;32.70;31.27;;;;;;;10.96;100.00;98557.97;5032949;28;20039;-78
2021/09/21 01:47:58;;;;;;;27.92;26.73;;;;;;;10.82;100.00;98554.19;5015332;28;20053;-78
2021/09/21 01:53:17;;;;;;;27.27;26.08;;;;;;;10.92;100.00;98556.91;5033601;28;20040;-79
2021/09/21 01:58:30;;;;;;;26.63;25.52;;;;;;;10.83;100.00;98550.38;5032925;28;20125;-77
2021/09/21 02:00:55;;;;;;;26.45;25.35;;;;;;;10.73;100.00;98554.81;5033135;28;20486;-78
2021/09/21 02:03:21;;;;;;;29.25;27.92;;;;;;;10.69;100.00;98556.47;5015073;28;20037;-80
2021/09/21 02:05:47;;;;;;;27.17;25.90;;;;;;;10.75;100.00;98555.34;5015221;28;20041;-77
2021/09/21 02:08:12;;;;;;;33.95;32.47;;;;;;;10.84;100.00;98549.28;5032924;28;20032;-77
2021/09/21 02:10:38;;;;;;;35.53;33.90;;;;;;;10.88;100.00;98553.06;5032760;28;20025;-77
2021/09/21 02:13:03;;;;;;;33.15;31.60;;;;;;;10.65;100.00;98554.59;5014843;28;20025;-77
2021/09/21 02:15:32;;;;;;;34.17;32.58;;;;;;;10.59;100.00;98555.69;5032772;28;20359;-77
2021/09/21 02:17:59;;;;;;;37.70;36.10;;;;;;;10.61;100.00;98561.72;5014989;28;20029;-77
2021/09/21 02:20:26;;;;;;;34.03;32.53;;;;;;;10.49;100.00;98564.78;5033089;28;20083;-78
2021/09/21 02:22:51;;;;;;;37.50;35.53;;;;;;;10.75;100.00;98557.25;5014684;28;20035;-77
2021/09/21 02:25:17;;;;;;;36.83;35.22;;;;;;;10.78;100.00;98567.63;5014905;28;20025;-77
2021/09/21 02:27:43;;;;;;;26.27;24.98;;;;;;;10.73;100.00;98565.75;5032412;28;20033;-77
2021/09/21 02:30:08;;;;;;;24.77;23.63;;;;;;;10.66;100.00;98570.69;5014303;28;20030;-81
2021/09/21 02:32:34;;;;;;;26.23;25.02;;;;;;;10.70;100.00;98582.72;5030884;28;20034;-78
2021/09/21 02:34:59;;;;;;;24.20;23.17;;;;;;;10.77;100.00;98576.97;5033893;28;20093;-81
2021/09/21 02:37:25;;;;;;;22.85;21.85;;;;;;;10.45;100.00;98577.34;5034167;28;20040;-77
2021/09/21 02:39:50;;;;;;;24.75;23.65;;;;;;;10.34;100.00;98583.94;5058484;28;20032;-79
2021/09/21 02:42:16;;;;;;;31.90;30.55;;;;;;;10.48;100.00;98579.53;5053233;28;20028;-78
2021/09/21 02:44:41;;;;;;;36.78;35.20;;;;;;;10.67;100.00;98583.28;5052737;28;20005;-81
2021/09/21 02:47:07;;;;;;;24.33;23.23;;;;;;;10.31;100.00;98591.88;5034072;28;20120;-81
2021/09/21 02:49:33;;;;;;;24.55;23.33;;;;;;;10.12;100.00;98595.19;5052181;28;20033;-78
2021/09/21 02:51:59;;;;;;;29.70;28.40;;;;;;;10.09;100.00;98598.47;5051943;28;20099;-80
2021/09/21 02:54:24;;;;;;;33.10;31.60;;;;;;;10.10;100.00;98582.88;5034140;28;20466;-79
2021/09/21 02:56:50;;;;;;;38.97;37.20;;;;;;;10.40;100.00;98592.97;5033733;28;20031;-80
2021/09/21 02:59:15;;;;;;;35.53;33.83;;;;;;;10.46;100.00;98602.81;5033855;28;20033;-79
2021/09/21 03:01:40;;;;;;;32.65;31.27;;;;;;;10.21;100.00;98590.81;5052069;28;20033;-79
2021/09/21 03:04:14;;;;;;;31.60;30.17;;;;;;;10.23;100.00;98590.56;5033940;28;20433;-81
2021/09/21 03:06:44;;;;;;;41.60;39.72;;;;;;;10.48;100.00;98597.84;5033514;28;20040;-80
2021/09/21 03:11:53;;;;;;;30.45;29.15;;;;;;;10.45;100.00;98591.03;5052350;28;20063;-79
2021/09/21 03:17:35;;;;;;;20.25;19.25;;;;;;;10.40;100.00;98593.78;5053677;28;20095;-83
2021/09/21 03:19:55;;;;;;;24.42;23.17;;;;;;;10.31;100.00;98584.50;5063429;28;20039;-83
2021/09/21 03:22:22;;;;;;;23.88;22.77;;;;;;;10.58;100.00;98581.41;5056992;28;20028;-83
2021/09/21 03:24:48;;;;;;;23.42;22.35;;;;;;;10.61;100.00;98581.69;5052363;28;20021;-81
2021/09/21 03:27:13;;;;;;;20.52;19.65;;;;;;;10.60;100.00;98576.47;5051946;28;20040;-83
2021/09/21 03:29:39;;;;;;;23.33;22.23;;;;;;;10.61;100.00;98578.94;5051621;28;20105;-83
2021/09/21 03:32:04;;;;;;;22.52;21.55;;;;;;;10.48;100.00;98568.59;5033167;28;20033;-81
2021/09/21 03:34:32;;;;;;;24.60;23.40;;;;;;;10.40;100.00;98573.84;5051761;28;20036;-82
2021/09/21 03:36:57;;;;;;;24.30;22.92;;;;;;;10.20;100.00;98585.63;5051708;28;20378;-82
2021/09/21 03:39:23;;;;;;;23.05;21.95;;;;;;;10.13;100.00;98582.34;5051552;28;20098;-84
2021/09/21 03:41:49;;;;;;;26.45;25.10;;;;;;;10.18;100.00;98585.06;5051501;28;20048;-82
2021/09/21 03:44:14;;;;;;;27.67;26.30;;;;;;;10.25;100.00;98588.34;5051437;28;20025;-81
2021/09/21 03:46:40;;;;;;;26.75;25.58;;;;;;;10.23;100.00;98593.28;5034569;28;20048;-78
2021/09/21 03:49:05;;;;;;;33.42;31.92;;;;;;;10.13;100.00;98593.28;5033951;28;20485;-82
2021/09/21 03:51:31;;;;;;;42.67;39.97;;;;;;;10.06;100.00;98598.19;5033855;28;20025;-80
2021/09/21 03:53:56;;;;;;;37.80;36.20;;;;;;;9.92;100.00;98597.97;5051198;28;20036;-81
2021/09/21 03:56:22;;;;;;;41.70;39.38;;;;;;;10.01;100.00;98611.88;5050872;28;20115;-80
2021/09/21 03:58:47;;;;;;;35.80;33.95;;;;;;;10.14;100.00;98611.34;5033070;28;20174;-81
2021/09/21 04:01:13;;;;;;;38.33;36.60;;;;;;;10.29;100.00;98614.03;5051017;28;20039;-81
2021/09/21 04:03:39;;;;;;;45.38;43.25;;;;;;;10.25;100.00;98609.41;5033169;28;20063;-83
2021/09/21 04:06:05;;;;;;;46.10;43.50;;;;;;;10.36;100.00;98609.13;5032959;28;20148;-81
2021/09/21 04:08:31;;;;;;;42.03;40.25;;;;;;;10.39;100.00;98607.72;5050379;28;20507;-80
2021/09/21 04:10:56;;;;;;;41.85;39.97;;;;;;;10.52;100.00;98607.97;5033185;28;20021;-81
2021/09/21 04:13:21;;;;;;;38.80;36.65;;;;;;;10.88;100.00;98616.03;5033112;28;20039;-80
2021/09/21 04:15:47;;;;;;;46.92;44.83;;;;;;;10.77;100.00;98618.00;5033311;28;20025;-81
2021/09/21 04:18:12;;;;;;;56.05;53.25;;;;;;;10.89;100.00;98615.75;5012589;28;20025;-78
2021/09/21 04:20:38;;;;;;;44.47;42.47;;;;;;;10.94;100.00;98623.94;5031273;28;20030;-77
2021/09/21 04:23:03;;;;;;;38.17;36.47;;;;;;;10.91;100.00;98619.03;5013255;28;20033;-79
2021/09/21 04:25:30;;;;;;;33.13;31.63;;;;;;;10.81;100.00;98630.00;5012280;28;20025;-80
2021/09/21 04:27:56;;;;;;;32.70;30.92;;;;;;;10.71;100.00;98619.91;5012404;28;20026;-79
2021/09/21 04:30:22;;;;;;;33.25;31.73;;;;;;;10.69;100.00;98634.97;5030196;28;20029;-79
2021/09/21 04:32:49;;;;;;;40.33;38.42;;;;;;;10.63;100.00;98636.94;5013094;28;20501;-80
2021/09/21 04:35:15;;;;;;;47.22;45.13;;;;;;;10.81;100.00;98635.47;5032990;28;20018;-78
2021/09/21 04:37:41;;;;;;;43.40;41.45;;;;;;;11.08;100.00;98633.19;5054656;28;20024;-79
2021/09/21 04:40:07;;;;;;;41.75;39.33;;;;;;;11.06;100.00;98634.53;5049681;28;20045;-82
2021/09/21 04:42:32;;;;;;;31.52;29.63;;;;;;;10.91;100.00;98637.34;5032372;28;20032;-78
2021/09/21 04:44:58;;;;;;;28.55;26.95;;;;;;;10.64;100.00;98643.22;5048777;28;20366;-78
2021/09/21 04:47:23;;;;;;;27.23;26.02;;;;;;;10.48;100.00;98642.44;5050221;28;20033;-81
2021/09/21 04:49:49;;;;;;;29.10;27.70;;;;;;;10.54;100.00;98638.59;5050626;28;20482;-78
2021/09/21 04:52:15;;;;;;;42.50;40.50;;;;;;;10.71;100.00;98638.28;5050095;28;20071;-82
2021/09/21 04:54:41;;;;;;;37.85;35.97;;;;;;;10.72;100.00;98640.72;5032593;28;20025;-80
2021/09/21 04:57:06;;;;;;;34.60;32.80;;;;;;;10.86;100.00;98651.06;5053725;28;20029;-82
2021/09/21 04:59:32;;;;;;;36.55;34.78;;;;;;;10.79;100.00;98653.28;5054099;28;20127;-79
2021/09/21 05:01:57;;;;;;;30.80;29.40;;;;;;;10.73;100.00;98647.84;5053986;28;20159;-80
2021/09/21 05:04:23;;;;;;;31.00;29.50;;;;;;;10.62;100.00;98656.34;5035836;28;20024;-79
2021/09/21 05:06:48;;;;;;;28.85;27.48;;;;;;;10.60;100.00;98651.16;5053591;28;20074;-80
2021/09/21 05:09:15;;;;;;;34.45;32.55;;;;;;;10.94;100.00;98655.94;5054375;28;20465;-78
2021/09/21 05:11:41;;;;;;;28.40;26.85;;;;;;;10.85;100.00;98660.38;5054814;28;20029;-79
2021/09/21 05:14:07;;;;;;;23.08;21.77;;;;;;;10.72;100.00;98662.59;5053659;28;20028;-79
2021/09/21 05:16:33;;;;;;;25.35;24.15;;;;;;;10.85;100.00;98665.84;5036554;28;20025;-78
2021/09/21 05:18:59;;;;;;;24.80;23.63;;;;;;;10.84;100.00;98669.69;5021704;28;20033;-84
2021/09/21 05:21:25;;;;;;;25.67;24.45;;;;;;;11.05;100.00;98676.72;5041689;28;20096;-75
2021/09/21 05:23:50;;;;;;;22.83;21.73;;;;;;;11.04;100.00;98664.94;5041830;28;20021;-75
2021/09/21 05:26:17;;;;;;;25.77;24.35;;;;;;;10.92;100.00;98688.28;5040975;28;20419;-75
2021/09/21 05:28:43;;;;;;;31.42;30.05;;;;;;;10.90;100.00;98679.53;5022866;28;20033;-75
2021/09/21 05:31:08;;;;;;;30.58;29.17;;;;;;;10.94;100.00;98675.13;5047760;28;20028;-76
2021/09/21 05:33:34;;;;;;;28.50;27.25;;;;;;;11.12;100.00;98677.25;5025259;28;20025;-75
2021/09/21 05:35:59;;;;;;;26.55;25.25;;;;;;;11.11;100.00;98683.81;5019518;28;20060;-75
2021/09/21 05:38:24;;;;;;;25.42;24.02;;;;;;;11.09;100.00;98683.25;5033810;28;20113;-76
2021/09/21 05:40:50;;;;;;;25.60;24.45;;;;;;;11.03;100.00;98687.94;5033288;28;20084;-75
2021/09/21 05:43:15;;;;;;;26.25;24.10;;;;;;;10.94;100.00;98683.31;5033359;28;20028;-75
2021/09/21 05:45:41;;;;;;;27.70;26.40;;;;;;;10.81;100.00;98681.22;5015239;28;20132;-77
2021/09/21 05:48:06;;;;;;;25.88;24.63;;;;;;;10.88;100.00;98695.38;5033913;28;20076;-75
2021/09/21 05:50:32;;;;;;;27.20;25.77;;;;;;;10.85;100.00;98693.22;5034872;28;20029;-84
2021/09/21 05:52:57;;;;;;;26.65;25.33;;;;;;;10.96;100.00;98694.84;5040208;28;20128;-88
2021/09/21 05:55:23;;;;;;;28.77;27.48;;;;;;;11.03;100.00;98711.75;5041736;28;20030;-86
2021/09/21 05:57:48;;;;;;;29.30;27.85;;;;;;;11.04;100.00;98710.66;5024989;28;20088;-86
2021/09/21 06:00:16;;;;;;;27.60;25.27;;;;;;;11.12;100.00;98710.09;5041365;28;20029;-84
2021/09/21 06:02:41;;;;;;;30.75;29.00;;;;;;;11.27;100.00;98712.78;5021861;28;20025;-84
2021/09/21 06:05:07;;;;;;;39.08;37.28;;;;;;;11.36;100.00;98726.69;5033349;28;20033;-81
2021/09/21 06:07:34;;;;;;;44.00;41.88;;;;;;;11.27;100.00;98712.78;5033211;28;20087;-81
2021/09/21 06:09:59;;;;;;;42.47;40.53;;;;;;;11.31;100.00;98724.78;5033170;28;20025;-83
2021/09/21 06:12:25;;;;;;;40.05;38.25;;;;;;;11.30;100.00;98731.38;5015627;28;20037;-81
2021/09/21 06:14:50;;;;;;;46.35;43.85;;;;;;;11.36;100.00;98722.03;5033456;28;20022;-79
2021/09/21 06:17:16;;;;;;;38.15;36.35;;;;;;;11.36;100.00;98722.03;5032723;28;20558;-81
2021/09/21 06:19:42;;;;;;;33.80;32.13;;;;;;;11.26;100.00;98716.59;5033161;28;20025;-80
2021/09/21 06:22:07;;;;;;;31.83;30.45;;;;;;;11.25;100.00;98720.44;5015517;28;20489;-81
2021/09/21 06:24:33;;;;;;;38.17;36.38;;;;;;;11.38;100.00;98722.56;5015707;28;20029;-83
2021/09/21 06:26:58;;;;;;;41.60;39.60;;;;;;;11.49;100.00;98731.56;5034581;28;20029;-82
2021/09/21 06:29:24;;;;;;;39.90;38.10;;;;;;;11.69;100.00;98747.88;5034987;28;20029;-82
2021/09/21 06:31:49;;;;;;;40.63;38.42;;;;;;;11.88;100.00;98737.91;5020913;28;20116;-82
2021/09/21 06:34:15;;;;;;;28.15;26.75;;;;;;;11.99;100.00;98738.69;5029983;28;20049;-81
2021/09/21 06:36:40;;;;;;;33.10;31.45;;;;;;;12.04;100.00;98727.66;5046808;28;20025;-82
2021/09/21 06:39:05;;;;;;;24.88;23.67;;;;;;;11.95;100.00;98749.41;5035033;28;20388;-82
2021/09/21 06:41:31;;;;;;;25.55;24.25;;;;;;;11.93;100.00;98750.78;5026877;28;20041;-81
2021/09/21 06:43:57;;;;;;;24.77;23.55;;;;;;;11.99;100.00;98752.41;5034706;28;20033;-81
2021/09/21 06:46:22;;;;;;;23.92;22.63;;;;;;;12.17;100.00;98762.69;5016659;28;20492;-79
2021/09/21 06:48:48;;;;;;;28.58;27.23;;;;;;;12.39;100.00;98760.31;5015621;28;20059;-81
2021/09/21 06:51:13;;;;;;;50.38;47.97;;;;;;;12.41;100.00;98763.56;5033753;28;20033;-80
2021/09/21 06:53:39;;;;;;;39.80;37.60;;;;;;;12.58;100.00;98763.16;5032301;28;20034;-79
2021/09/21 06:56:05;;;;;;;25.20;23.98;;;;;;;12.64;100.00;98765.56;5032503;28;20022;-83
2021/09/21 06:58:33;;;;;;;24.85;23.65;;;;;;;12.98;100.00;98760.00;5017938;28;20033;-81
2021/09/21 07:00:58;;;;;;;21.25;20.15;;;;;;;13.39;99.67;98757.66;5012459;28;20176;-81
2021/09/21 07:03:24;;;;;;;23.98;22.77;;;;;;;13.76;96.89;98754.13;5038999;28;20553;-83
2021/09/21 07:05:54;;;;;;;25.45;24.05;;;;;;;13.92;95.09;98756.38;5034560;28;20048;-82
2021/09/21 07:08:22;;;;;;;27.20;26.00;;;;;;;13.78;95.73;98757.44;5036105;28;20110;-78
2021/09/21 07:10:47;;;;;;;24.15;22.98;;;;;;;14.07;94.21;98757.25;5042772;28;20022;-82
2021/09/21 07:13:13;;;;;;;23.35;22.17;;;;;;;14.15;94.33;98762.09;5040218;28;20060;-83
2021/09/21 07:15:38;;;;;;;21.83;20.73;;;;;;;14.03;92.90;98765.31;5021075;28;20029;-82
2021/09/21 07:18:04;;;;;;;22.15;20.60;;;;;;;14.24;91.55;98769.38;5041812;28;20021;-81
2021/09/21 07:20:29;;;;;;;24.13;22.77;;;;;;;14.57;88.60;98773.00;5040164;28;20028;-82
2021/09/21 07:22:55;;;;;;;22.52;21.40;;;;;;;14.86;84.66;98781.84;5024373;28;20484;-81
2021/09/21 07:25:21;;;;;;;24.55;22.95;;;;;;;14.79;85.58;98783.34;5041712;28;20082;-81
2021/09/21 07:27:52;;;;;;;23.27;21.50;;;;;;;15.51;82.75;98790.81;5038589;28;20029;-83
2021/09/21 07:30:20;;;;;;;19.67;18.00;;;;;;;15.72;80.81;98785.72;5039880;28;20017;-81
2021/09/21 07:32:46;;;;;;;17.48;16.58;;;;;;;16.01;79.45;98801.91;5040442;28;20128;-81
2021/09/21 07:35:12;;;;;;;16.85;16.05;;;;;;;17.03;75.10;98803.88;5022633;28;20025;-79
2021/09/21 07:37:38;;;;;;;15.35;14.60;;;;;;;17.21;72.40;98804.78;5024230;28;20091;-79
2021/09/21 07:40:07;;;;;;;16.55;15.75;;;;;;;16.85;73.65;98802.94;5040644;28;20021;-80
2021/09/21 07:42:36;;;;;;;14.65;14.00;;;;;;;16.28;74.20;98801.03;5040147;28;20103;-81
2021/09/21 07:45:05;;;;;;;20.27;19.05;;;;;;;16.22;75.47;98807.81;5038185;28;20021;-76
2021/09/21 07:47:30;;;;;;;18.50;17.60;;;;;;;15.87;76.81;98810.22;5046339;28;20037;-76
2021/09/21 07:49:56;;;;;;;17.10;16.30;;;;;;;16.38;74.87;98803.56;5041710;28;20021;-75
2021/09/21 07:52:21;;;;;;;16.48;15.77;;;;;;;17.60;69.87;98821.44;5038552;28;20025;-76
2021/09/21 07:54:47;;;;;;;17.85;16.95;;;;;;;16.96;69.84;98814.56;5038958;28;20064;-75
2021/09/21 07:57:15;;;;;;;19.77;18.88;;;;;;;17.39;69.90;98823.91;5040173;28;20120;-75
2021/09/21 07:59:41;;;;;;;17.60;16.80;;;;;;;18.43;66.00;98827.81;5036424;28;20033;-75
2021/09/21 08:02:11;;;;;;;15.38;14.73;;;;;;;19.04;63.35;98835.81;5019143;28;20060;-80
2021/09/21 08:04:39;;;;;;;17.25;16.45;;;;;;;19.46;60.84;98836.84;5036937;28;20045;-79
2021/09/21 08:07:09;;;;;;;12.73;12.13;;;;;;;19.21;57.85;98840.47;5045680;28;20060;-81
2021/09/21 08:09:35;;;;;;;13.35;12.75;;;;;;;19.80;55.28;98835.88;5042867;28;20028;-78
2021/09/21 08:12:00;;;;;;;13.23;12.63;;;;;;;20.19;55.33;98843.03;5039477;28;20029;-80
2021/09/21 08:14:26;;;;;;;11.32;10.82;;;;;;;19.29;54.93;98845.22;5040440;28;20025;-79
2021/09/21 08:16:52;;;;;;;13.35;12.68;;;;;;;20.04;53.38;98838.88;5040635;28;20084;-81
2021/09/21 08:19:20;;;;;;;14.50;13.82;;;;;;;19.31;55.16;98850.41;5039855;28;20143;-81
2021/09/21 08:21:46;;;;;;;14.38;13.77;;;;;;;18.68;56.42;98838.94;5040616;28;20042;-83
2021/09/21 08:24:11;;;;;;;13.43;12.75;;;;;;;18.59;57.45;98848.38;5039778;28;20021;-80
2021/09/21 08:26:37;;;;;;;13.80;13.13;;;;;;;20.25;55.50;98858.34;5021491;28;20041;-79
2021/09/21 08:29:05;;;;;;;14.52;13.73;;;;;;;20.60;51.02;98845.06;5042315;28;20025;-78
2021/09/21 08:31:31;;;;;;;15.13;14.30;;;;;;;20.25;51.47;98858.34;5032532;28;20063;-86
2021/09/21 08:33:56;;;;;;;12.05;11.43;;;;;;;20.78;50.19;98849.31;5043204;28;20026;-78
2021/09/21 08:36:22;;;;;;;13.00;12.50;;;;;;;18.92;54.56;98846.72;5038486;28;20534;-77
2021/09/21 08:38:48;;;;;;;12.82;12.13;;;;;;;19.06;54.87;98855.69;5018581;28;20033;-77
2021/09/21 08:41:13;;;;;;;11.43;10.93;;;;;;;19.57;52.16;98842.88;5020540;28;20034;-79
2021/09/21 08:43:38;;;;;;;11.85;11.27;;;;;;;21.71;47.26;98854.28;5042076;28;20025;-76
2021/09/21 08:46:04;;;;;;;15.38;14.68;;;;;;;20.26;49.15;98854.47;5044321;28;20047;-77
2021/09/21 08:48:30;;;;;;;13.95;13.35;;;;;;;20.10;49.37;98850.59;5041363;28;20060;-79
2021/09/21 08:50:56;;;;;;;13.15;12.55;;;;;;;19.28;51.91;98843.56;5013121;28;20057;-75
2021/09/21 08:53:22;;;;;;;12.32;11.82;;;;;;;18.43;54.69;98852.72;5040905;28;20029;-77
2021/09/21 08:55:47;;;;;;;13.70;12.90;;;;;;;20.21;52.10;98851.84;5021048;28;20029;-76
2021/09/21 08:58:14;;;;;;;16.20;15.50;;;;;;;22.38;45.09;98848.97;5024635;28;20013;-77
2021/09/21 09:00:39;;;;;;;13.32;12.50;;;;;;;21.41;46.43;98852.84;5042018;28;20036;-77
2021/09/21 09:03:11;;;;;;;12.43;11.82;;;;;;;21.01;47.78;98858.94;5042996;28;20614;-77
2021/09/21 09:05:43;;;;;;;13.27;12.48;;;;;;;18.85;52.60;98851.16;5047467;28;20038;-76
2021/09/21 09:08:08;;;;;;;13.40;12.85;;;;;;;18.61;53.84;98855.22;5023430;28;20048;-77
2021/09/21 09:10:33;;;;;;;13.15;12.55;;;;;;;20.18;50.49;98858.06;5042924;28;20017;-75
2021/09/21 09:12:59;;;;;;;13.52;12.73;;;;;;;19.43;50.54;98854.16;5040769;28;20047;-77
2021/09/21 09:15:26;;;;;;;13.07;12.48;;;;;;;19.77;50.48;98853.22;5023268;28;20493;-81
2021/09/21 09:17:57;;;;;;;13.55;12.95;;;;;;;20.22;47.07;98851.53;5024894;28;20047;-78
2021/09/21 09:20:40;;;;;;;14.20;13.60;;;;;;;19.16;48.63;98837.91;5021953;28;20033;-81
2021/09/21 09:23:09;;;;;;;14.30;13.60;;;;;;;19.29;50.68;98841.63;5040851;28;20026;-79
2021/09/21 09:25:46;;;;;;;13.55;12.98;;;;;;;21.43;46.68;98845.75;5031399;28;20030;-82
2021/09/21 09:28:15;;;;;;;15.55;14.85;;;;;;;19.66;50.17;98847.22;5016159;28;20038;-79
2021/09/21 09:30:42;;;;;;;13.68;13.07;;;;;;;18.87;49.03;98840.53;5039348;28;20036;-79
2021/09/21 09:33:08;;;;;;;13.85;13.25;;;;;;;18.40;51.29;98847.84;5042162;28;20107;-81
2021/09/21 09:35:35;;;;;;;13.07;12.27;;;;;;;17.84;52.22;98841.22;5037248;28;20117;-82
2021/09/21 09:38:05;;;;;;;14.60;13.90;;;;;;;16.75;55.12;98839.16;5042259;28;20052;-78
2021/09/21 09:40:32;;;;;;;15.32;14.63;;;;;;;17.60;53.29;98838.03;5024034;28;20481;-81
2021/09/21 09:42:58;;;;;;;12.32;11.73;;;;;;;19.40;49.79;98831.81;5022375;28;20027;-81
2021/09/21 09:45:31;;;;;;;15.38;14.68;;;;;;;20.98;45.92;98842.94;5040786;28;20032;-80
2021/09/21 09:47:57;;;;;;;12.73;12.07;;;;;;;21.57;43.54;98843.47;5037828;28;20065;-78
2021/09/21 09:50:29;;;;;;;14.73;14.13;;;;;;;20.20;45.86;98847.44;5040328;28;20052;-79
2021/09/21 09:53:14;;;;;;;12.27;11.77;;;;;;;20.69;45.06;98845.81;5036304;28;20124;-81
2021/09/21 09:55:46;;;;;;;11.60;11.10;;;;;;;21.38;43.05;98837.63;5040093;28;20091;-78
2021/09/21 09:58:12;;;;;;;14.07;13.48;;;;;;;21.56;42.74;98841.84;5042396;28;20040;-82
2021/09/21 10:00:37;;;;;;;12.70;12.10;;;;;;;22.66;40.41;98842.66;5048064;28;20481;-78
2021/09/21 10:03:04;;;;;;;14.32;13.63;;;;;;;23.47;36.52;98836.63;5040400;28;20021;-80
2021/09/21 10:05:30;;;;;;;14.32;13.43;;;;;;;24.08;35.64;98845.38;5039990;28;20040;-80
2021/09/21 10:07:58;;;;;;;13.55;12.95;;;;;;;20.37;43.05;98839.00;5039929;28;20026;-78
2021/09/21 10:10:29;;;;;;;13.20;12.50;;;;;;;21.25;42.60;98825.66;5032962;28;20672;-79
2021/09/21 10:12:58;;;;;;;12.68;12.18;;;;;;;23.85;37.84;98833.22;5036435;28;20040;-82
2021/09/21 10:15:25;;;;;;;10.60;10.07;;;;;;;22.19;40.06;98831.22;5040996;28;20625;-77
2021/09/21 10:17:54;;;;;;;11.90;11.38;;;;;;;23.11;38.26;98834.00;5021378;28;20474;-79
2021/09/21 10:20:35;;;;;;;12.80;12.20;;;;;;;22.86;38.45;98833.31;5040846;28;20029;-74
2021/09/21 10:23:05;;;;;;;11.45;10.95;;;;;;;23.60;36.62;98818.63;5039859;28;20398;-78
2021/09/21 10:25:36;;;;;;;14.07;13.30;;;;;;;22.17;39.42;98833.56;5045207;28;20536;-77
2021/09/21 10:28:12;;;;;;;11.57;10.98;;;;;;;22.28;39.61;98829.94;5045032;28;20017;-77
2021/09/21 10:30:38;;;;;;;12.15;11.60;;;;;;;21.30;40.65;98817.06;5035731;28;20052;-78
2021/09/21 10:33:15;;;;;;;18.55;16.70;;;;;;;21.45;41.41;98809.22;5040905;28;20470;-77
2021/09/21 10:35:49;;;;;;;11.85;10.68;;;;;;;21.04;41.37;98815.72;5034368;28;20070;-76
2021/09/21 10:38:17;;;;;;;15.07;13.90;;;;;;;21.13;41.45;98825.63;5019375;28;20527;-77
2021/09/21 10:40:49;;;;;;;13.73;13.02;;;;;;;21.27;40.65;98822.53;5038638;28;20037;-77
2021/09/21 10:43:33;;;;;;;13.57;12.85;;;;;;;22.24;39.62;98833.78;5038577;28;20037;-80
2021/09/21 10:46:22;;;;;;;12.63;12.02;;;;;;;23.63;36.01;98831.03;5019270;28;20769;-75
2021/09/21 10:48:48;;;;;;;12.38;11.82;;;;;;;21.83;38.85;98826.44;5036347;28;20482;-77
2021/09/21 10:51:17;;;;;;;11.18;10.68;;;;;;;22.00;38.88;98831.00;5041520;28;20025;-78
2021/09/21 10:53:57;;;;;;;11.13;10.63;;;;;;;22.37;38.02;98832.56;5022315;28;20033;-78
2021/09/21 10:56:24;;;;;;;11.68;11.18;;;;;;;21.83;39.76;98837.59;5036221;28;20330;-74
2021/09/21 10:58:54;;;;;;;10.95;10.45;;;;;;;20.32;42.66;98836.44;5018120;28;20023;-73
2021/09/21 11:01:20;;;;;;;11.90;11.40;;;;;;;20.02;43.44;98832.84;5039915;28;20421;-78
2021/09/21 11:03:47;;;;;;;14.18;13.50;;;;;;;19.11;44.89;98826.94;5039996;28;20041;-78
2021/09/21 11:06:14;;;;;;;14.88;14.27;;;;;;;18.57;46.44;98825.72;5032935;28;20359;-76
2021/09/21 11:08:41;;;;;;;12.13;11.63;;;;;;;19.43;45.50;98831.13;5039173;28;20158;-79
2021/09/21 11:11:08;;;;;;;12.18;11.68;;;;;;;19.06;44.77;98833.50;5039699;28;20026;-80
2021/09/21 11:13:36;;;;;;;13.85;13.15;;;;;;;18.48;45.93;98822.91;5039987;28;20087;-76
2021/09/21 11:16:06;;;;;;;15.55;14.95;;;;;;;18.27;46.88;98826.63;5039083;28;20033;-76
2021/09/21 11:18:32;;;;;;;16.75;16.05;;;;;;;18.69;45.80;98817.56;5020886;28;20033;-75
2021/09/21 11:21:02;;;;;;;13.02;12.43;;;;;;;18.87;45.45;98821.13;5018217;28;20021;-79